createdAt,value
2018-08-04T00:04:00.126Z,1.73
2018-08-04T00:09:06.940Z,2.10
2018-08-04T00:14:10.301Z,1.70
2018-08-04T00:19:13.317Z,1.47
2018-08-04T00:24:16.345Z,1.60
2018-08-04T00:29:19.374Z,1.60
2018-08-04T00:34:22.372Z,1.33
2018-08-04T00:39:25.366Z,1.50
2018-08-04T00:44:28.397Z,1.50
2018-08-04T00:49:31.373Z,1.43
2018-08-04T00:54:34.381Z,1.63
2018-08-04T00:59:37.360Z,1.87
2018-08-04T01:04:40.840Z,1.67
2018-08-04T01:09:44.368Z,1.50
2018-08-04T01:14:47.961Z,1.60
2018-08-04T01:19:51.426Z,1.30
2018-08-04T01:24:54.672Z,1.60
2018-08-04T01:29:57.713Z,1.63
2018-08-04T01:35:00.733Z,1.40
2018-08-04T01:40:05.168Z,1.57
2018-08-04T01:45:08.253Z,1.50
2018-08-04T01:50:11.294Z,1.80
2018-08-04T01:55:14.293Z,1.70
2018-08-04T02:00:17.358Z,2.40
2018-08-04T02:05:20.346Z,1.70
2018-08-04T02:10:23.329Z,1.90
2018-08-04T02:15:26.344Z,2.53
2018-08-04T02:20:29.378Z,2.23
2018-08-04T02:25:32.538Z,1.97
2018-08-04T02:30:35.570Z,2.23
2018-08-04T02:35:38.547Z,2.43
2018-08-04T02:40:41.586Z,2.40
2018-08-04T02:45:44.601Z,2.53
2018-08-04T02:50:47.646Z,2.87
2018-08-04T02:55:50.714Z,2.20
2018-08-04T03:00:53.770Z,3.17
2018-08-04T03:05:56.831Z,3.73
2018-08-04T03:10:59.880Z,2.97
2018-08-04T03:16:02.950Z,3.90
2018-08-04T03:21:06.058Z,3.30
2018-08-04T03:26:09.102Z,3.30
2018-08-04T03:31:12.162Z,2.57
2018-08-04T03:36:15.223Z,2.70
2018-08-04T03:41:18.285Z,2.70
2018-08-04T03:46:21.355Z,2.47
2018-08-04T03:51:24.422Z,2.70
2018-08-04T03:56:27.522Z,3.37
2018-08-04T04:01:30.545Z,2.80
2018-08-04T04:06:33.680Z,2.67
2018-08-04T04:11:36.687Z,2.43
2018-08-04T04:16:39.844Z,2.77
2018-08-04T04:21:42.864Z,2.87
2018-08-04T04:26:45.922Z,3.30
2018-08-04T04:31:48.945Z,3.07
2018-08-04T04:36:52.029Z,2.97
2018-08-04T04:41:55.093Z,3.00
2018-08-04T04:46:58.114Z,3.40
2018-08-04T04:52:01.180Z,3.43
2018-08-04T04:57:04.556Z,2.83
2018-08-04T05:02:07.644Z,3.00
2018-08-04T05:07:10.634Z,3.70
2018-08-04T05:12:13.720Z,4.20
2018-08-04T05:17:16.762Z,3.80
2018-08-04T05:22:19.810Z,3.90
2018-08-04T05:27:22.856Z,4.53
2018-08-04T05:32:26.940Z,3.77
2018-08-04T05:37:30.064Z,4.20
2018-08-04T05:42:33.140Z,4.63
2018-08-04T05:47:36.182Z,4.10
2018-08-04T05:52:39.216Z,4.30
2018-08-04T05:57:42.309Z,5.20
2018-08-04T06:02:45.364Z,3.83
2018-08-04T06:07:48.369Z,4.63
2018-08-04T06:12:51.409Z,4.00
2018-08-04T06:17:54.443Z,4.17
2018-08-04T06:22:57.444Z,4.10
2018-08-04T06:28:00.478Z,4.93
2018-08-04T06:33:03.518Z,6.00
2018-08-04T06:38:06.656Z,5.00
2018-08-04T06:43:09.682Z,4.80
2018-08-04T06:48:12.704Z,4.40
2018-08-04T06:53:15.744Z,4.20
2018-08-04T06:58:19.227Z,4.53
2018-08-04T07:03:22.226Z,3.93
2018-08-04T07:08:25.295Z,4.87
2018-08-04T07:13:28.327Z,3.40
2018-08-04T07:18:31.321Z,4.40
2018-08-04T07:23:34.325Z,4.17
2018-08-04T07:28:37.324Z,4.77
2018-08-04T07:33:40.354Z,5.33
2018-08-04T07:38:43.406Z,4.50
2018-08-04T07:43:46.568Z,4.70
2018-08-04T07:48:49.650Z,4.43
2018-08-04T07:53:52.698Z,4.40
2018-08-04T07:58:55.807Z,4.20
2018-08-04T08:03:58.856Z,4.10
2018-08-04T08:09:02.094Z,3.37
2018-08-04T08:14:05.302Z,3.60
2018-08-04T08:19:08.781Z,4.00
2018-08-04T08:24:11.897Z,3.27
2018-08-04T08:29:15.022Z,3.30
2018-08-04T08:34:18.097Z,2.90
2018-08-04T08:39:21.177Z,3.47
2018-08-04T08:44:24.385Z,2.80
2018-08-04T08:49:27.462Z,2.60
2018-08-04T08:54:30.536Z,2.87
2018-08-04T08:59:33.605Z,2.77
2018-08-04T09:04:36.665Z,2.73
2018-08-04T09:09:39.738Z,2.60
2018-08-04T09:14:42.786Z,2.63
2018-08-04T09:19:45.814Z,2.87
2018-08-04T09:24:48.838Z,2.40
2018-08-04T09:29:51.839Z,2.20
2018-08-04T09:34:54.963Z,2.00
2018-08-04T09:39:57.990Z,2.33
2018-08-04T09:45:01.107Z,2.37
2018-08-04T09:50:05.132Z,2.57
2018-08-04T09:55:09.155Z,2.13
2018-08-04T10:01:20.391Z,3.03
2018-08-04T10:06:23.464Z,1.87
2018-08-04T10:11:26.599Z,1.73
2018-08-04T10:16:29.573Z,1.97
2018-08-04T10:21:32.635Z,1.90
2018-08-04T10:26:35.803Z,1.93
2018-08-04T10:31:38.826Z,2.30
2018-08-04T10:36:42.604Z,2.10
2018-08-04T10:41:45.710Z,1.70
2018-08-04T10:46:48.767Z,2.30
2018-08-04T10:51:51.757Z,2.07
2018-08-04T10:56:54.964Z,1.97
2018-08-04T11:01:58.127Z,2.40
2018-08-04T11:07:01.346Z,2.10
2018-08-04T11:12:04.945Z,2.03
2018-08-04T11:17:08.364Z,1.87
2018-08-04T11:22:12.184Z,1.70
2018-08-04T11:27:17.254Z,2.40
2018-08-04T11:32:22.938Z,2.10
2018-08-04T11:37:26.778Z,1.60
2018-08-04T11:42:30.572Z,2.00
2018-08-04T11:47:34.225Z,1.80
2018-08-04T11:52:37.610Z,1.60
2018-08-04T11:57:40.653Z,1.67
2018-08-04T12:02:43.740Z,1.33
2018-08-04T12:07:46.911Z,1.70
2018-08-04T12:12:49.974Z,1.50
2018-08-04T12:17:53.134Z,1.87
2018-08-04T12:22:56.164Z,1.40
2018-08-04T12:27:59.213Z,1.37
2018-08-04T12:33:02.300Z,1.77
2018-08-04T12:38:05.409Z,1.50
2018-08-04T12:43:08.460Z,2.10
2018-08-04T12:48:11.502Z,1.70
2018-08-04T12:53:14.658Z,1.80
2018-08-04T12:58:17.697Z,1.70
2018-08-04T13:03:21.046Z,1.40
2018-08-04T13:08:24.185Z,1.50
2018-08-04T13:13:27.317Z,1.80
2018-08-04T13:18:30.419Z,2.13
2018-08-04T13:23:33.465Z,1.80
2018-08-04T13:28:36.578Z,1.30
2018-08-04T13:33:39.639Z,1.50
2018-08-04T13:38:44.655Z,1.40
2018-08-04T13:43:49.419Z,1.57
2018-08-04T13:48:53.251Z,1.20
2018-08-04T13:53:56.486Z,1.20
2018-08-04T13:58:59.523Z,1.87
2018-08-04T14:04:02.726Z,1.87
2018-08-04T14:09:08.194Z,1.50
2018-08-04T14:14:11.365Z,1.37
2018-08-04T14:19:14.755Z,2.10
2018-08-04T14:24:17.896Z,1.40
2018-08-04T14:29:21.127Z,1.90
2018-08-04T14:34:24.156Z,1.60
2018-08-04T14:39:27.249Z,1.23
2018-08-04T14:44:30.338Z,1.40
2018-08-04T14:49:33.522Z,1.60
2018-08-04T14:54:36.651Z,1.63
2018-08-04T14:59:39.860Z,1.97
2018-08-04T15:04:43.091Z,1.73
2018-08-04T15:09:46.029Z,1.73
2018-08-04T15:14:49.057Z,2.20
2018-08-04T15:19:53.210Z,1.57
2018-08-04T15:24:56.399Z,1.50
2018-08-04T15:29:59.641Z,1.87
2018-08-04T15:35:02.741Z,1.80
2018-08-04T15:40:05.817Z,1.67
2018-08-04T15:45:09.284Z,2.40
2018-08-04T15:50:12.618Z,1.57
2018-08-04T15:55:15.736Z,1.30
2018-08-04T16:00:19.025Z,1.90
2018-08-04T16:05:22.463Z,1.27
2018-08-04T16:10:25.604Z,1.60
2018-08-04T16:15:28.878Z,1.60
2018-08-04T16:20:32.113Z,1.70
2018-08-04T16:25:35.332Z,3.90
2018-08-04T16:30:38.601Z,1.40
2018-08-04T16:35:41.913Z,1.97
2018-08-04T16:40:45.341Z,2.10
2018-08-04T16:45:48.722Z,2.50
2018-08-04T16:50:51.783Z,2.00
2018-08-04T16:55:54.996Z,2.10
2018-08-04T17:00:58.055Z,2.03
2018-08-04T17:06:01.167Z,2.10
2018-08-04T17:11:04.278Z,2.07
2018-08-04T17:16:07.335Z,2.03
2018-08-04T17:21:10.342Z,3.20
2018-08-04T17:26:13.383Z,2.40
2018-08-04T17:31:16.756Z,2.67
2018-08-04T17:36:20.125Z,2.43
2018-08-04T17:41:23.153Z,2.53
2018-08-04T17:46:26.402Z,4.60
2018-08-04T17:51:30.432Z,2.17
2018-08-04T17:56:33.401Z,2.23
2018-08-04T18:01:36.493Z,2.00
2018-08-04T18:06:39.802Z,1.70
2018-08-04T18:11:42.810Z,2.40
2018-08-04T18:16:45.894Z,2.60
2018-08-04T18:21:48.963Z,2.40
2018-08-04T18:26:52.310Z,2.47
2018-08-04T18:31:55.404Z,1.87
2018-08-04T18:36:58.513Z,2.00
2018-08-04T18:42:01.590Z,2.07
2018-08-04T18:47:04.605Z,2.00
2018-08-04T18:52:07.654Z,2.10
2018-08-04T18:57:10.749Z,1.90
2018-08-04T19:02:13.852Z,2.20
2018-08-04T19:07:17.750Z,2.17
2018-08-04T19:12:20.803Z,2.13
2018-08-04T19:17:23.865Z,2.00
2018-08-04T19:22:26.916Z,2.07
2018-08-04T19:27:30.060Z,1.70
2018-08-04T19:32:33.188Z,1.80
2018-08-04T19:37:36.265Z,1.83
2018-08-04T19:42:39.305Z,1.47
2018-08-04T19:47:42.440Z,2.00
2018-08-04T19:52:45.544Z,1.53
2018-08-04T19:57:48.654Z,1.63
2018-08-04T20:02:51.915Z,1.60
2018-08-04T20:07:55.019Z,1.60
2018-08-04T20:12:58.010Z,1.80
2018-08-04T20:18:01.203Z,1.77
2018-08-04T20:23:04.400Z,1.77
2018-08-04T20:28:07.450Z,1.83
2018-08-04T20:33:10.541Z,1.80
2018-08-04T20:38:13.624Z,1.77
2018-08-04T20:43:16.674Z,1.70
2018-08-04T20:48:19.746Z,1.57
2018-08-04T20:53:22.841Z,1.57
2018-08-04T20:58:26.917Z,1.37
2018-08-04T21:03:29.994Z,1.33
2018-08-04T21:08:33.031Z,1.80
2018-08-04T21:13:36.251Z,1.70
2018-08-04T21:18:39.287Z,1.70
2018-08-04T21:23:42.321Z,1.40
2018-08-04T21:28:45.405Z,1.50
2018-08-04T21:33:48.453Z,1.50
2018-08-04T21:38:51.541Z,1.10
2018-08-04T21:43:54.611Z,1.43
2018-08-04T21:48:57.658Z,1.40
2018-08-04T21:54:00.695Z,1.20
2018-08-04T21:59:03.773Z,1.57
2018-08-04T22:04:06.854Z,1.63
2018-08-04T22:09:21.574Z,1.97
2018-08-04T22:14:24.566Z,1.53
2018-08-04T22:19:27.626Z,1.40
2018-08-04T22:24:31.151Z,1.73
2018-08-04T22:29:34.271Z,1.67
2018-08-04T22:34:37.309Z,1.77
2018-08-04T22:39:40.449Z,1.60
2018-08-04T22:45:02.943Z,1.57
2018-08-04T22:50:06.013Z,1.50
2018-08-04T22:55:09.058Z,1.70
2018-08-04T23:00:12.146Z,1.60
2018-08-04T23:05:15.190Z,2.43
2018-08-04T23:10:18.250Z,1.67
2018-08-04T23:15:21.381Z,2.20
2018-08-04T23:20:24.445Z,1.80
2018-08-04T23:25:27.525Z,1.97
2018-08-04T23:30:30.597Z,2.30
2018-08-04T23:35:33.682Z,2.50
2018-08-04T23:40:36.724Z,2.23
2018-08-04T23:45:39.794Z,2.90
2018-08-04T23:50:42.853Z,2.10
2018-08-04T23:55:45.926Z,2.00
